::: dream skyward :::
rwy22.exblog.jp
Top
今日のJA8084追っかけ日記
2011年 02月 06日 |
久々出動しました。

今日は7:35の千歳行きとその帰りの2Legのみの投入。

RJTT 050030Z 35008KT CAVOK 08/M02 Q1017 NOSIG RMK A3005

ふむ。北風の朝の北行きの上がり。 あそこしかありませんね。

あそこしかないんですが、すんごいガスってる orz どのくらいかというと、このくらい。
e0215320_2491710.jpg


しかも。。。
e0215320_2492610.jpg

上昇もこの勢い。 背中は見せてくれませんでした。

朝の千歳行きで、いっつも光の回る位置まで低~くあがってきてくれるのは、大抵この人。もはや鉄板。
e0215320_2493015.jpg



さて、あまりに視程が悪いのでちょこっと城南を経由してベイパー引いてる離陸機を撮ってから、
千歳からの戻りを迎え撃つべくターミナルへ。
T2展望デッキで待ち構えていると・・・

定時発着率で頑張ってるJALさん。
ちょっと遅れ気味だったETA近辺に34Rに出発機が多いなと思っていたら、案の定やられました。
e0215320_249396.jpg

なんで34Lに降りちゃうかなあ。。。早く降りるためにリクエストしたんでしょうね。

今日はもう運用がないので、諦めてD展エリアでお茶を濁して帰ろうかと思ったその矢先に、ここでこの姿に出会う。
e0215320_2494474.jpg


明日までここで休憩なんだね。 今日もお疲れ様でした^^


SONY DSLR-A550/SLT-A55V + APO 400mm F5.6/APO 70-300mm F4-5.6

肝心のα55。
心配されてた「旧シグマレンズの絞りピン干渉でカメラエラー」の問題は出なかった(レンズは使える)ものの、
α55のHi-Driveモード(7コマ/秒)だと、
絞りピンの駆動が追いつかないのか、Exifでは同じ露出条件で並んだコマ(例えばみんなF8で1/1000)なのにところどころで画像が暗転 orz
またもや誤算が。。。凹 90年代製造のオールド単焦点レンズだから仕方ないのかなあ。。

現代式の150-500APOズームとか欲しくなってきちゃった!
[PR]
by blackqualis | 2011-02-06 02:58 | RJTT
<< Japan air 510 c... PageTop Taking off 2011 >>
XML | ATOM

個人情報保護
情報取得について
免責事項
Sky Plane Skin by Sun&Moon